Disclaimer

Please do not use the information listed here in-flight or in-navigation, as they are not provided to us by the airports but are provided by volunteers, so they might be outdated.

Search


Regions


Airport information page

No radio frequency information is available.

Airport informations:
Latitude: 58° 27' 23.04" N
Longitude: 013° 58' 21.62" E
Elevation: 324 feet - 99 meters
Operating hours: Remarks
Operating agency: Civil government, landing fees and diplomatic clearance may be required
Timezone: UTC+1(+2DT) - Last Sunday in March to last Sunday in October
Fuel: Jet A1, without icing nhibitor.

100/130 MIL Spec, low lead, aviation gasoline (BLUE)

Runway information:
01/19 - 5696 x 98 feet< - >1736 x 30 meters

Recent METARs:
ESGR 202250Z AUTO 03007KT 9999 OVC017/// M00/M00 Q1032
ESGR 202320Z AUTO 03007KT 9999 FEW008/// BKN012/// OVC017/// M00/M00 Q1032
ESGR 202350Z AUTO 04008KT 9999 OVC009/// M00/M01 Q1032

Airport on the map: